sensor_id;sensor_type;location;lat;lon;timestamp;temperature;humidity
37268;DHT22;23154;52.542;13.362;2022-10-31T00:02:23;12.20;99.90
37268;DHT22;23154;52.542;13.362;2022-10-31T00:04:49;12.30;99.90
37268;DHT22;23154;52.542;13.362;2022-10-31T00:07:14;12.30;99.90
37268;DHT22;23154;52.542;13.362;2022-10-31T00:09:40;12.30;99.90
37268;DHT22;23154;52.542;13.362;2022-10-31T00:12:05;12.30;99.90
37268;DHT22;23154;52.542;13.362;2022-10-31T00:14:31;12.20;99.90
37268;DHT22;23154;52.542;13.362;2022-10-31T00:16:56;12.20;99.90
37268;DHT22;23154;52.542;13.362;2022-10-31T00:19:22;12.20;99.90
37268;DHT22;23154;52.542;13.362;2022-10-31T00:21:48;12.10;99.90
37268;DHT22;23154;52.542;13.362;2022-10-31T00:24:13;12.10;99.90
37268;DHT22;23154;52.542;13.362;2022-10-31T00:26:39;12.00;99.90
37268;DHT22;23154;52.542;13.362;2022-10-31T00:29:04;12.00;99.90
37268;DHT22;23154;52.542;13.362;2022-10-31T00:31:30;12.00;99.90
37268;DHT22;23154;52.542;13.362;2022-10-31T00:33:57;12.00;99.90
37268;DHT22;23154;52.542;13.362;2022-10-31T00:36:23;12.00;99.90
37268;DHT22;23154;52.542;13.362;2022-10-31T00:38:48;11.90;99.90
37268;DHT22;23154;52.542;13.362;2022-10-31T00:41:15;11.90;99.90
37268;DHT22;23154;52.542;13.362;2022-10-31T00:43:42;11.90;99.90
37268;DHT22;23154;52.542;13.362;2022-10-31T00:46:08;12.00;99.90
37268;DHT22;23154;52.542;13.362;2022-10-31T00:48:34;12.00;99.90
37268;DHT22;23154;52.542;13.362;2022-10-31T00:50:59;11.90;99.90
37268;DHT22;23154;52.542;13.362;2022-10-31T00:53:26;11.90;99.90
37268;DHT22;23154;52.542;13.362;2022-10-31T00:55:52;11.90;99.90
37268;DHT22;23154;52.542;13.362;2022-10-31T00:58:17;11.90;99.90
37268;DHT22;23154;52.542;13.362;2022-10-31T01:00:43;11.80;99.90
37268;DHT22;23154;52.542;13.362;2022-10-31T01:03:09;11.80;99.90
37268;DHT22;23154;52.542;13.362;2022-10-31T01:05:34;11.90;99.90
37268;DHT22;23154;52.542;13.362;2022-10-31T01:08:00;11.80;99.90
37268;DHT22;23154;52.542;13.362;2022-10-31T01:10:25;11.80;99.90
37268;DHT22;23154;52.542;13.362;2022-10-31T01:12:51;11.70;99.90
37268;DHT22;23154;52.542;13.362;2022-10-31T01:15:20;11.70;99.90
37268;DHT22;23154;52.542;13.362;2022-10-31T01:17:46;11.70;99.90
37268;DHT22;23154;52.542;13.362;2022-10-31T01:20:14;11.70;99.90
37268;DHT22;23154;52.542;13.362;2022-10-31T01:22:39;11.70;99.90
37268;DHT22;23154;52.542;13.362;2022-10-31T01:25:06;11.70;99.90
37268;DHT22;23154;52.542;13.362;2022-10-31T01:27:32;11.60;99.90
37268;DHT22;23154;52.542;13.362;2022-10-31T01:29:58;11.60;99.90
37268;DHT22;23154;52.542;13.362;2022-10-31T01:32:23;11.70;99.90
37268;DHT22;23154;52.542;13.362;2022-10-31T01:34:49;11.60;99.90
37268;DHT22;23154;52.542;13.362;2022-10-31T01:37:15;11.70;99.90
37268;DHT22;23154;52.542;13.362;2022-10-31T01:39:41;11.70;99.90
37268;DHT22;23154;52.542;13.362;2022-10-31T01:42:06;11.70;99.90
37268;DHT22;23154;52.542;13.362;2022-10-31T01:47:15;11.70;99.90
37268;DHT22;23154;52.542;13.362;2022-10-31T01:49:47;11.70;99.90
37268;DHT22;23154;52.542;13.362;2022-10-31T01:52:41;11.80;99.90
37268;DHT22;23154;52.542;13.362;2022-10-31T01:57:42;11.70;99.90
37268;DHT22;23154;52.542;13.362;2022-10-31T02:00:10;11.60;99.90
37268;DHT22;23154;52.542;13.362;2022-10-31T02:02:36;11.70;99.90
37268;DHT22;23154;52.542;13.362;2022-10-31T02:05:06;11.70;99.90
37268;DHT22;23154;52.542;13.362;2022-10-31T02:08:09;11.70;99.90
37268;DHT22;23154;52.542;13.362;2022-10-31T02:10:38;11.70;99.90
37268;DHT22;23154;52.542;13.362;2022-10-31T02:13:06;11.70;99.90
37268;DHT22;23154;52.542;13.362;2022-10-31T02:15:33;11.70;99.90
37268;DHT22;23154;52.542;13.362;2022-10-31T02:17:59;11.70;99.90
37268;DHT22;23154;52.542;13.362;2022-10-31T02:20:29;11.80;99.90
37268;DHT22;23154;52.542;13.362;2022-10-31T02:25:51;11.90;99.90
37268;DHT22;23154;52.542;13.362;2022-10-31T02:33:55;11.70;99.90
37268;DHT22;23154;52.542;13.362;2022-10-31T02:36:43;11.60;99.90
37268;DHT22;23154;52.542;13.362;2022-10-31T02:39:18;11.60;99.90
37268;DHT22;23154;52.542;13.362;2022-10-31T02:44:50;11.60;99.90
37268;DHT22;23154;52.542;13.362;2022-10-31T02:47:21;11.60;99.90
37268;DHT22;23154;52.542;13.362;2022-10-31T02:50:00;11.60;99.90
37268;DHT22;23154;52.542;13.362;2022-10-31T02:52:29;11.60;99.90
37268;DHT22;23154;52.542;13.362;2022-10-31T02:54:54;11.60;99.90
37268;DHT22;23154;52.542;13.362;2022-10-31T02:57:30;11.60;99.90
37268;DHT22;23154;52.542;13.362;2022-10-31T03:00:05;11.60;99.90
37268;DHT22;23154;52.542;13.362;2022-10-31T03:03:01;11.70;99.90
37268;DHT22;23154;52.542;13.362;2022-10-31T03:06:06;11.80;99.90
37268;DHT22;23154;52.542;13.362;2022-10-31T03:08:46;11.80;99.90
37268;DHT22;23154;52.542;13.362;2022-10-31T03:11:17;11.80;99.90
37268;DHT22;23154;52.542;13.362;2022-10-31T03:16:37;11.90;99.90
37268;DHT22;23154;52.542;13.362;2022-10-31T03:19:10;12.00;99.90
37268;DHT22;23154;52.542;13.362;2022-10-31T03:21:42;12.00;99.90
37268;DHT22;23154;52.542;13.362;2022-10-31T03:24:10;12.00;99.90
37268;DHT22;23154;52.542;13.362;2022-10-31T03:26:40;12.00;99.90
37268;DHT22;23154;52.542;13.362;2022-10-31T03:29:08;12.00;99.90
37268;DHT22;23154;52.542;13.362;2022-10-31T03:31:40;12.00;99.90
37268;DHT22;23154;52.542;13.362;2022-10-31T03:34:09;11.90;99.90
37268;DHT22;23154;52.542;13.362;2022-10-31T03:36:38;11.90;99.90
37268;DHT22;23154;52.542;13.362;2022-10-31T03:39:06;11.90;99.90
37268;DHT22;23154;52.542;13.362;2022-10-31T03:41:36;11.90;99.90
37268;DHT22;23154;52.542;13.362;2022-10-31T03:44:06;11.90;99.90
37268;DHT22;23154;52.542;13.362;2022-10-31T03:46:33;11.80;99.90
37268;DHT22;23154;52.542;13.362;2022-10-31T03:48:59;11.80;99.90
37268;DHT22;23154;52.542;13.362;2022-10-31T03:51:26;11.80;99.90
37268;DHT22;23154;52.542;13.362;2022-10-31T03:56:39;11.60;99.90
37268;DHT22;23154;52.542;13.362;2022-10-31T03:59:19;11.60;99.90
37268;DHT22;23154;52.542;13.362;2022-10-31T04:01:52;11.50;99.90
37268;DHT22;23154;52.542;13.362;2022-10-31T04:04:19;11.40;99.90
37268;DHT22;23154;52.542;13.362;2022-10-31T04:06:46;11.30;99.90
37268;DHT22;23154;52.542;13.362;2022-10-31T04:09:13;11.50;99.90
37268;DHT22;23154;52.542;13.362;2022-10-31T04:11:49;11.50;99.90
37268;DHT22;23154;52.542;13.362;2022-10-31T04:14:15;11.40;99.90
37268;DHT22;23154;52.542;13.362;2022-10-31T04:16:43;11.40;99.90
37268;DHT22;23154;52.542;13.362;2022-10-31T04:19:10;11.50;99.90
37268;DHT22;23154;52.542;13.362;2022-10-31T04:21:36;11.40;99.90
37268;DHT22;23154;52.542;13.362;2022-10-31T04:24:01;11.50;99.90
37268;DHT22;23154;52.542;13.362;2022-10-31T04:26:27;11.40;99.90
37268;DHT22;23154;52.542;13.362;2022-10-31T04:28:52;11.40;99.90
37268;DHT22;23154;52.542;13.362;2022-10-31T04:31:18;11.40;99.90
37268;DHT22;23154;52.542;13.362;2022-10-31T04:33:44;11.40;99.90
37268;DHT22;23154;52.542;13.362;2022-10-31T04:36:09;11.40;99.90
37268;DHT22;23154;52.542;13.362;2022-10-31T04:38:35;11.40;99.90
37268;DHT22;23154;52.542;13.362;2022-10-31T04:41:00;11.50;99.90
37268;DHT22;23154;52.542;13.362;2022-10-31T04:43:26;11.50;99.90
37268;DHT22;23154;52.542;13.362;2022-10-31T04:45:52;11.50;99.90
37268;DHT22;23154;52.542;13.362;2022-10-31T04:48:17;11.40;99.90
37268;DHT22;23154;52.542;13.362;2022-10-31T04:50:43;11.40;99.90
37268;DHT22;23154;52.542;13.362;2022-10-31T04:53:08;11.40;99.90
37268;DHT22;23154;52.542;13.362;2022-10-31T04:55:37;11.40;99.90
37268;DHT22;23154;52.542;13.362;2022-10-31T04:58:02;11.40;99.90
37268;DHT22;23154;52.542;13.362;2022-10-31T05:00:29;11.30;99.90
37268;DHT22;23154;52.542;13.362;2022-10-31T05:02:56;11.20;99.90
37268;DHT22;23154;52.542;13.362;2022-10-31T05:05:29;11.20;99.90
37268;DHT22;23154;52.542;13.362;2022-10-31T05:07:56;11.20;99.90
37268;DHT22;23154;52.542;13.362;2022-10-31T05:10:27;11.10;99.90
37268;DHT22;23154;52.542;13.362;2022-10-31T05:12:56;11.20;99.90
37268;DHT22;23154;52.542;13.362;2022-10-31T05:15:23;11.20;99.90
37268;DHT22;23154;52.542;13.362;2022-10-31T05:17:49;11.20;99.90
37268;DHT22;23154;52.542;13.362;2022-10-31T05:20:17;11.20;99.90
37268;DHT22;23154;52.542;13.362;2022-10-31T05:22:51;11.30;99.90
37268;DHT22;23154;52.542;13.362;2022-10-31T05:25:17;11.30;99.90
37268;DHT22;23154;52.542;13.362;2022-10-31T05:27:45;11.30;99.90
37268;DHT22;23154;52.542;13.362;2022-10-31T05:30:13;11.30;99.90
37268;DHT22;23154;52.542;13.362;2022-10-31T05:32:50;11.30;99.90
37268;DHT22;23154;52.542;13.362;2022-10-31T05:35:19;11.30;99.90
37268;DHT22;23154;52.542;13.362;2022-10-31T05:37:45;11.40;99.90
37268;DHT22;23154;52.542;13.362;2022-10-31T05:40:12;11.30;99.90
37268;DHT22;23154;52.542;13.362;2022-10-31T05:42:39;11.40;99.90
37268;DHT22;23154;52.542;13.362;2022-10-31T05:45:06;11.30;99.90
37268;DHT22;23154;52.542;13.362;2022-10-31T05:47:32;11.30;99.90
37268;DHT22;23154;52.542;13.362;2022-10-31T05:49:58;11.30;99.90
37268;DHT22;23154;52.542;13.362;2022-10-31T05:52:24;11.30;99.90
37268;DHT22;23154;52.542;13.362;2022-10-31T05:54:49;11.30;99.90
37268;DHT22;23154;52.542;13.362;2022-10-31T05:57:15;11.20;99.90
37268;DHT22;23154;52.542;13.362;2022-10-31T05:59:41;11.20;99.90
37268;DHT22;23154;52.542;13.362;2022-10-31T06:02:06;11.20;99.90
37268;DHT22;23154;52.542;13.362;2022-10-31T06:04:32;11.30;99.90
37268;DHT22;23154;52.542;13.362;2022-10-31T06:06:57;11.30;99.90
37268;DHT22;23154;52.542;13.362;2022-10-31T06:09:23;11.30;99.90
37268;DHT22;23154;52.542;13.362;2022-10-31T06:11:49;11.30;99.90
37268;DHT22;23154;52.542;13.362;2022-10-31T06:14:14;11.40;99.90
37268;DHT22;23154;52.542;13.362;2022-10-31T06:16:40;11.40;99.90
37268;DHT22;23154;52.542;13.362;2022-10-31T06:19:05;11.50;99.90
37268;DHT22;23154;52.542;13.362;2022-10-31T06:21:31;11.50;99.90
37268;DHT22;23154;52.542;13.362;2022-10-31T06:23:57;11.60;99.90
37268;DHT22;23154;52.542;13.362;2022-10-31T06:26:22;11.60;99.90
37268;DHT22;23154;52.542;13.362;2022-10-31T06:28:48;11.60;99.90
37268;DHT22;23154;52.542;13.362;2022-10-31T06:31:13;11.60;99.90
37268;DHT22;23154;52.542;13.362;2022-10-31T06:33:41;11.70;99.90
37268;DHT22;23154;52.542;13.362;2022-10-31T06:36:07;11.70;99.90
37268;DHT22;23154;52.542;13.362;2022-10-31T06:38:33;11.70;99.90
37268;DHT22;23154;52.542;13.362;2022-10-31T06:41:02;11.80;99.90
37268;DHT22;23154;52.542;13.362;2022-10-31T06:43:28;11.80;99.90
37268;DHT22;23154;52.542;13.362;2022-10-31T06:45:54;11.90;99.90
37268;DHT22;23154;52.542;13.362;2022-10-31T06:48:19;11.90;99.90
37268;DHT22;23154;52.542;13.362;2022-10-31T06:50:45;11.90;99.90
37268;DHT22;23154;52.542;13.362;2022-10-31T06:53:10;12.00;99.90
37268;DHT22;23154;52.542;13.362;2022-10-31T06:55:36;12.10;99.90
37268;DHT22;23154;52.542;13.362;2022-10-31T06:58:01;12.10;99.90
37268;DHT22;23154;52.542;13.362;2022-10-31T07:00:29;12.10;99.90
37268;DHT22;23154;52.542;13.362;2022-10-31T07:05:20;12.30;99.90
37268;DHT22;23154;52.542;13.362;2022-10-31T07:07:46;12.40;99.90
37268;DHT22;23154;52.542;13.362;2022-10-31T07:10:11;12.50;99.90
37268;DHT22;23154;52.542;13.362;2022-10-31T07:12:37;12.60;99.90
37268;DHT22;23154;52.542;13.362;2022-10-31T07:15:03;12.70;99.90
37268;DHT22;23154;52.542;13.362;2022-10-31T07:17:29;12.70;99.90
37268;DHT22;23154;52.542;13.362;2022-10-31T07:19:54;12.70;99.90
37268;DHT22;23154;52.542;13.362;2022-10-31T07:22:20;12.80;99.90
37268;DHT22;23154;52.542;13.362;2022-10-31T07:24:45;12.90;99.90
37268;DHT22;23154;52.542;13.362;2022-10-31T07:27:11;12.90;99.90
37268;DHT22;23154;52.542;13.362;2022-10-31T07:29:36;13.00;99.90
37268;DHT22;23154;52.542;13.362;2022-10-31T07:32:02;13.00;99.90
37268;DHT22;23154;52.542;13.362;2022-10-31T07:34:28;13.10;99.90
37268;DHT22;23154;52.542;13.362;2022-10-31T07:36:54;13.20;99.90
37268;DHT22;23154;52.542;13.362;2022-10-31T07:39:20;13.30;99.90
37268;DHT22;23154;52.542;13.362;2022-10-31T07:41:45;13.30;99.90
37268;DHT22;23154;52.542;13.362;2022-10-31T07:44:11;13.30;99.90
37268;DHT22;23154;52.542;13.362;2022-10-31T07:46:36;13.30;99.90
37268;DHT22;23154;52.542;13.362;2022-10-31T07:49:02;13.30;99.90
37268;DHT22;23154;52.542;13.362;2022-10-31T07:51:27;13.30;99.90
37268;DHT22;23154;52.542;13.362;2022-10-31T07:53:53;13.20;99.90
37268;DHT22;23154;52.542;13.362;2022-10-31T07:56:18;13.10;99.90
37268;DHT22;23154;52.542;13.362;2022-10-31T07:58:44;13.10;99.90
37268;DHT22;23154;52.542;13.362;2022-10-31T08:01:10;13.10;99.90
37268;DHT22;23154;52.542;13.362;2022-10-31T08:03:35;13.10;99.90
37268;DHT22;23154;52.542;13.362;2022-10-31T08:06:01;13.10;99.90
37268;DHT22;23154;52.542;13.362;2022-10-31T08:08:26;13.10;99.90
37268;DHT22;23154;52.542;13.362;2022-10-31T08:10:53;13.10;99.90
37268;DHT22;23154;52.542;13.362;2022-10-31T08:13:19;13.10;99.90
37268;DHT22;23154;52.542;13.362;2022-10-31T08:15:45;13.10;99.90
37268;DHT22;23154;52.542;13.362;2022-10-31T08:18:15;13.10;99.90
37268;DHT22;23154;52.542;13.362;2022-10-31T08:20:41;13.10;99.90
37268;DHT22;23154;52.542;13.362;2022-10-31T08:23:09;13.10;99.90
37268;DHT22;23154;52.542;13.362;2022-10-31T08:25:35;13.00;99.90
37268;DHT22;23154;52.542;13.362;2022-10-31T08:28:01;13.10;99.90
37268;DHT22;23154;52.542;13.362;2022-10-31T08:30:29;13.00;99.90
37268;DHT22;23154;52.542;13.362;2022-10-31T08:32:59;13.00;99.90
37268;DHT22;23154;52.542;13.362;2022-10-31T08:35:25;13.00;99.90
37268;DHT22;23154;52.542;13.362;2022-10-31T08:37:55;13.00;99.90
37268;DHT22;23154;52.542;13.362;2022-10-31T08:40:21;13.00;99.90
37268;DHT22;23154;52.542;13.362;2022-10-31T08:42:47;13.10;99.90
37268;DHT22;23154;52.542;13.362;2022-10-31T08:45:12;13.10;99.90
37268;DHT22;23154;52.542;13.362;2022-10-31T08:47:38;13.10;99.90
37268;DHT22;23154;52.542;13.362;2022-10-31T08:50:03;13.20;99.90
37268;DHT22;23154;52.542;13.362;2022-10-31T08:52:29;13.30;99.90
37268;DHT22;23154;52.542;13.362;2022-10-31T08:54:55;13.30;99.90
37268;DHT22;23154;52.542;13.362;2022-10-31T08:57:22;13.30;99.90
37268;DHT22;23154;52.542;13.362;2022-10-31T08:59:47;13.40;99.90
37268;DHT22;23154;52.542;13.362;2022-10-31T09:02:13;13.40;99.90
37268;DHT22;23154;52.542;13.362;2022-10-31T09:04:38;13.40;99.90
37268;DHT22;23154;52.542;13.362;2022-10-31T09:07:04;13.60;99.90
37268;DHT22;23154;52.542;13.362;2022-10-31T09:09:29;13.70;99.90
37268;DHT22;23154;52.542;13.362;2022-10-31T09:11:55;13.70;99.90
37268;DHT22;23154;52.542;13.362;2022-10-31T09:14:21;13.80;99.90
37268;DHT22;23154;52.542;13.362;2022-10-31T09:16:46;13.80;99.90
37268;DHT22;23154;52.542;13.362;2022-10-31T09:19:12;13.70;99.90
37268;DHT22;23154;52.542;13.362;2022-10-31T09:21:37;13.80;99.90
37268;DHT22;23154;52.542;13.362;2022-10-31T09:24:03;13.90;99.90
37268;DHT22;23154;52.542;13.362;2022-10-31T09:26:28;13.90;99.90
37268;DHT22;23154;52.542;13.362;2022-10-31T09:28:54;13.90;99.90
37268;DHT22;23154;52.542;13.362;2022-10-31T09:31:19;14.00;99.90
37268;DHT22;23154;52.542;13.362;2022-10-31T09:33:45;14.00;99.90
37268;DHT22;23154;52.542;13.362;2022-10-31T09:36:11;14.10;99.90
37268;DHT22;23154;52.542;13.362;2022-10-31T09:38:36;14.10;99.90
37268;DHT22;23154;52.542;13.362;2022-10-31T09:44:13;14.20;99.90
37268;DHT22;23154;52.542;13.362;2022-10-31T09:47:15;14.20;99.90
37268;DHT22;23154;52.542;13.362;2022-10-31T09:50:19;14.20;99.90
37268;DHT22;23154;52.542;13.362;2022-10-31T09:53:34;14.20;99.90
37268;DHT22;23154;52.542;13.362;2022-10-31T09:55:58;14.40;99.90
37268;DHT22;23154;52.542;13.362;2022-10-31T09:58:26;14.50;99.90
37268;DHT22;23154;52.542;13.362;2022-10-31T10:00:55;14.70;99.90
37268;DHT22;23154;52.542;13.362;2022-10-31T10:03:50;14.70;99.90
37268;DHT22;23154;52.542;13.362;2022-10-31T10:06:21;14.90;99.90
37268;DHT22;23154;52.542;13.362;2022-10-31T10:08:48;14.90;99.90
37268;DHT22;23154;52.542;13.362;2022-10-31T10:11:21;15.20;99.90
37268;DHT22;23154;52.542;13.362;2022-10-31T10:20:18;15.40;99.90
37268;DHT22;23154;52.542;13.362;2022-10-31T10:23:19;15.50;99.90
37268;DHT22;23154;52.542;13.362;2022-10-31T10:25:53;15.60;99.90
37268;DHT22;23154;52.542;13.362;2022-10-31T10:28:29;15.60;99.90
37268;DHT22;23154;52.542;13.362;2022-10-31T10:33:43;15.90;99.90
37268;DHT22;23154;52.542;13.362;2022-10-31T10:36:14;16.10;99.90
37268;DHT22;23154;52.542;13.362;2022-10-31T10:39:08;16.20;99.90
37268;DHT22;23154;52.542;13.362;2022-10-31T10:41:38;16.20;99.90
37268;DHT22;23154;52.542;13.362;2022-10-31T10:44:09;16.30;99.90
37268;DHT22;23154;52.542;13.362;2022-10-31T10:46:52;16.40;99.90
37268;DHT22;23154;52.542;13.362;2022-10-31T10:49:52;16.30;99.90
37268;DHT22;23154;52.542;13.362;2022-10-31T10:52:29;16.40;99.90
37268;DHT22;23154;52.542;13.362;2022-10-31T10:57:47;16.60;99.90
37268;DHT22;23154;52.542;13.362;2022-10-31T11:00:17;16.70;99.90
37268;DHT22;23154;52.542;13.362;2022-10-31T11:02:43;16.80;99.90
37268;DHT22;23154;52.542;13.362;2022-10-31T11:05:26;16.70;99.90
37268;DHT22;23154;52.542;13.362;2022-10-31T11:07:53;16.80;99.90
37268;DHT22;23154;52.542;13.362;2022-10-31T11:10:20;16.80;99.90
37268;DHT22;23154;52.542;13.362;2022-10-31T11:15:33;16.90;99.90
37268;DHT22;23154;52.542;13.362;2022-10-31T11:18:00;17.00;99.90
37268;DHT22;23154;52.542;13.362;2022-10-31T11:20:31;17.00;99.90
37268;DHT22;23154;52.542;13.362;2022-10-31T11:23:03;17.00;99.90
37268;DHT22;23154;52.542;13.362;2022-10-31T11:25:29;17.10;99.90
37268;DHT22;23154;52.542;13.362;2022-10-31T11:28:05;17.20;99.90
37268;DHT22;23154;52.542;13.362;2022-10-31T11:30:52;17.20;99.90
37268;DHT22;23154;52.542;13.362;2022-10-31T11:33:37;17.40;99.90
37268;DHT22;23154;52.542;13.362;2022-10-31T11:39:22;17.50;99.90
37268;DHT22;23154;52.542;13.362;2022-10-31T11:41:50;17.50;99.90
37268;DHT22;23154;52.542;13.362;2022-10-31T11:44:28;17.50;99.90
37268;DHT22;23154;52.542;13.362;2022-10-31T11:46:59;17.60;99.90
37268;DHT22;23154;52.542;13.362;2022-10-31T11:49:46;17.70;99.90
37268;DHT22;23154;52.542;13.362;2022-10-31T11:52:24;17.70;99.90
37268;DHT22;23154;52.542;13.362;2022-10-31T11:55:16;17.70;99.90
37268;DHT22;23154;52.542;13.362;2022-10-31T11:57:47;17.80;99.90
37268;DHT22;23154;52.542;13.362;2022-10-31T12:00:28;17.80;99.90
37268;DHT22;23154;52.542;13.362;2022-10-31T12:06:02;17.60;99.90
37268;DHT22;23154;52.542;13.362;2022-10-31T12:08:32;17.60;99.90
37268;DHT22;23154;52.542;13.362;2022-10-31T12:16:52;17.60;99.90
37268;DHT22;23154;52.542;13.362;2022-10-31T12:27:33;17.70;99.90
37268;DHT22;23154;52.542;13.362;2022-10-31T12:30:19;17.80;99.90
37268;DHT22;23154;52.542;13.362;2022-10-31T12:33:14;17.90;99.90
37268;DHT22;23154;52.542;13.362;2022-10-31T12:35:51;17.90;99.90
37268;DHT22;23154;52.542;13.362;2022-10-31T12:46:56;17.90;99.90
37268;DHT22;23154;52.542;13.362;2022-10-31T12:49:42;18.00;99.90
37268;DHT22;23154;52.542;13.362;2022-10-31T12:58:21;18.40;99.90
37268;DHT22;23154;52.542;13.362;2022-10-31T13:00:56;18.40;99.90
37268;DHT22;23154;52.542;13.362;2022-10-31T13:03:28;18.50;99.90
37268;DHT22;23154;52.542;13.362;2022-10-31T13:05:58;18.50;99.90
37268;DHT22;23154;52.542;13.362;2022-10-31T13:08:49;18.50;99.90
37268;DHT22;23154;52.542;13.362;2022-10-31T13:11:26;18.50;99.90
37268;DHT22;23154;52.542;13.362;2022-10-31T13:14:07;18.60;99.90
37268;DHT22;23154;52.542;13.362;2022-10-31T13:16:37;18.50;99.90
37268;DHT22;23154;52.542;13.362;2022-10-31T13:22:22;18.70;99.90
37268;DHT22;23154;52.542;13.362;2022-10-31T13:30:41;18.60;99.90
37268;DHT22;23154;52.542;13.362;2022-10-31T13:44:16;18.80;99.90
37268;DHT22;23154;52.542;13.362;2022-10-31T13:46:44;18.70;99.90
37268;DHT22;23154;52.542;13.362;2022-10-31T13:49:39;18.60;99.90
37268;DHT22;23154;52.542;13.362;2022-10-31T13:52:23;18.60;99.90
37268;DHT22;23154;52.542;13.362;2022-10-31T13:54:51;18.60;99.90
37268;DHT22;23154;52.542;13.362;2022-10-31T13:57:41;18.40;99.90
37268;DHT22;23154;52.542;13.362;2022-10-31T14:00:24;18.20;99.90
37268;DHT22;23154;52.542;13.362;2022-10-31T14:02:52;18.00;99.90
37268;DHT22;23154;52.542;13.362;2022-10-31T14:05:26;17.80;99.90
37268;DHT22;23154;52.542;13.362;2022-10-31T14:07:53;17.50;99.90
37268;DHT22;23154;52.542;13.362;2022-10-31T14:10:27;17.20;99.90
37268;DHT22;23154;52.542;13.362;2022-10-31T14:13:15;17.00;99.90
37268;DHT22;23154;52.542;13.362;2022-10-31T14:15:53;16.90;99.90
37268;DHT22;23154;52.542;13.362;2022-10-31T14:18:25;16.70;99.90
37268;DHT22;23154;52.542;13.362;2022-10-31T14:20:53;16.50;99.90
37268;DHT22;23154;52.542;13.362;2022-10-31T14:23:38;16.40;99.90
37268;DHT22;23154;52.542;13.362;2022-10-31T14:31:39;15.90;99.90
37268;DHT22;23154;52.542;13.362;2022-10-31T14:34:19;15.80;99.90
37268;DHT22;23154;52.542;13.362;2022-10-31T14:40:10;15.80;99.90
37268;DHT22;23154;52.542;13.362;2022-10-31T14:42:51;15.70;99.90
37268;DHT22;23154;52.542;13.362;2022-10-31T14:45:36;15.50;99.90
37268;DHT22;23154;52.542;13.362;2022-10-31T14:48:24;15.30;99.90
37268;DHT22;23154;52.542;13.362;2022-10-31T14:50:57;15.20;99.90
37268;DHT22;23154;52.542;13.362;2022-10-31T14:53:33;15.10;99.90
37268;DHT22;23154;52.542;13.362;2022-10-31T14:56:01;15.00;99.90
37268;DHT22;23154;52.542;13.362;2022-10-31T14:58:46;14.90;99.90
37268;DHT22;23154;52.542;13.362;2022-10-31T15:03:47;14.70;99.90
37268;DHT22;23154;52.542;13.362;2022-10-31T15:06:14;14.70;99.90
37268;DHT22;23154;52.542;13.362;2022-10-31T15:08:45;14.60;99.90
37268;DHT22;23154;52.542;13.362;2022-10-31T15:11:25;14.50;99.90
37268;DHT22;23154;52.542;13.362;2022-10-31T15:13:56;14.50;99.90
37268;DHT22;23154;52.542;13.362;2022-10-31T15:16:26;14.40;99.90
37268;DHT22;23154;52.542;13.362;2022-10-31T15:18:59;14.40;99.90
37268;DHT22;23154;52.542;13.362;2022-10-31T15:21:27;14.20;99.90
37268;DHT22;23154;52.542;13.362;2022-10-31T15:23:57;14.10;99.90
37268;DHT22;23154;52.542;13.362;2022-10-31T15:26:32;14.10;99.90
37268;DHT22;23154;52.542;13.362;2022-10-31T15:29:21;14.00;99.90
37268;DHT22;23154;52.542;13.362;2022-10-31T15:31:56;14.00;99.90
37268;DHT22;23154;52.542;13.362;2022-10-31T15:34:32;13.90;99.90
37268;DHT22;23154;52.542;13.362;2022-10-31T15:37:01;13.80;99.90
37268;DHT22;23154;52.542;13.362;2022-10-31T15:39:27;13.80;99.90
37268;DHT22;23154;52.542;13.362;2022-10-31T15:41:55;13.80;99.90
37268;DHT22;23154;52.542;13.362;2022-10-31T15:47:04;13.80;99.90
37268;DHT22;23154;52.542;13.362;2022-10-31T15:49:42;13.80;99.90
37268;DHT22;23154;52.542;13.362;2022-10-31T15:54:53;14.00;99.90
37268;DHT22;23154;52.542;13.362;2022-10-31T15:57:21;14.10;99.90
37268;DHT22;23154;52.542;13.362;2022-10-31T15:59:49;14.10;99.90
37268;DHT22;23154;52.542;13.362;2022-10-31T16:02:20;14.10;99.90
37268;DHT22;23154;52.542;13.362;2022-10-31T16:05:34;14.10;99.90
37268;DHT22;23154;52.542;13.362;2022-10-31T16:07:48;14.00;99.90
37268;DHT22;23154;52.542;13.362;2022-10-31T16:10:22;14.00;99.90
37268;DHT22;23154;52.542;13.362;2022-10-31T16:12:49;14.00;99.90
37268;DHT22;23154;52.542;13.362;2022-10-31T16:15:16;14.00;99.90
37268;DHT22;23154;52.542;13.362;2022-10-31T16:17:45;14.00;99.90
37268;DHT22;23154;52.542;13.362;2022-10-31T16:20:26;13.90;99.90
37268;DHT22;23154;52.542;13.362;2022-10-31T16:22:54;13.90;99.90
37268;DHT22;23154;52.542;13.362;2022-10-31T16:25:25;13.80;99.90
37268;DHT22;23154;52.542;13.362;2022-10-31T16:27:52;13.80;99.90
37268;DHT22;23154;52.542;13.362;2022-10-31T16:30:30;13.80;99.90
37268;DHT22;23154;52.542;13.362;2022-10-31T16:33:00;13.90;99.90
37268;DHT22;23154;52.542;13.362;2022-10-31T16:35:31;13.90;99.90
37268;DHT22;23154;52.542;13.362;2022-10-31T16:37:57;14.00;99.90
37268;DHT22;23154;52.542;13.362;2022-10-31T16:40:23;14.00;99.90
37268;DHT22;23154;52.542;13.362;2022-10-31T16:42:49;13.80;99.90
37268;DHT22;23154;52.542;13.362;2022-10-31T16:45:20;13.80;99.90
37268;DHT22;23154;52.542;13.362;2022-10-31T16:47:46;13.70;99.90
37268;DHT22;23154;52.542;13.362;2022-10-31T16:50:21;13.80;99.90
37268;DHT22;23154;52.542;13.362;2022-10-31T16:52:47;13.80;99.90
37268;DHT22;23154;52.542;13.362;2022-10-31T16:55:14;13.70;99.90
37268;DHT22;23154;52.542;13.362;2022-10-31T16:57:49;13.70;99.90
37268;DHT22;23154;52.542;13.362;2022-10-31T17:00:18;13.80;99.90
37268;DHT22;23154;52.542;13.362;2022-10-31T17:02:45;13.80;99.90
37268;DHT22;23154;52.542;13.362;2022-10-31T17:05:12;13.80;99.90
37268;DHT22;23154;52.542;13.362;2022-10-31T17:07:40;13.90;99.90
37268;DHT22;23154;52.542;13.362;2022-10-31T17:10:07;13.80;99.90
37268;DHT22;23154;52.542;13.362;2022-10-31T17:12:33;14.00;99.90
37268;DHT22;23154;52.542;13.362;2022-10-31T17:14:59;13.90;99.90
37268;DHT22;23154;52.542;13.362;2022-10-31T17:17:25;13.80;99.90
37268;DHT22;23154;52.542;13.362;2022-10-31T17:19:50;13.90;99.90
37268;DHT22;23154;52.542;13.362;2022-10-31T17:22:16;14.00;99.90
37268;DHT22;23154;52.542;13.362;2022-10-31T17:24:42;14.00;99.90
37268;DHT22;23154;52.542;13.362;2022-10-31T17:27:07;13.90;99.90
37268;DHT22;23154;52.542;13.362;2022-10-31T17:29:33;13.90;99.90